createdAt,value
2023-04-18T00:02:36.000Z,10.59
2023-04-18T00:07:35.000Z,10.6
2023-04-18T00:12:36.000Z,10.54
2023-04-18T00:17:35.000Z,10.46
2023-04-18T00:22:36.000Z,10.23
2023-04-18T00:27:35.000Z,9.91
2023-04-18T00:32:35.000Z,9.57
2023-04-18T00:37:35.000Z,9.51
2023-04-18T00:42:36.000Z,9.66
2023-04-18T00:47:35.000Z,9.9
2023-04-18T00:52:35.000Z,9.97
2023-04-18T00:57:36.000Z,9.97
2023-04-18T01:02:36.000Z,9.93
2023-04-18T01:07:36.000Z,9.82
2023-04-18T01:12:35.000Z,9.81
2023-04-18T01:17:35.000Z,9.63
2023-04-18T01:22:35.000Z,9.57
2023-04-18T01:27:36.000Z,9.7
2023-04-18T01:32:35.000Z,9.88
2023-04-18T01:37:35.000Z,10
2023-04-18T01:42:35.000Z,10.05
2023-04-18T01:47:35.000Z,10.04
2023-04-18T01:52:35.000Z,9.83
2023-04-18T01:57:35.000Z,9.47
2023-04-18T02:02:35.000Z,9.17
2023-04-18T02:07:36.000Z,9.17
2023-04-18T02:12:36.000Z,9.03
2023-04-18T02:17:36.000Z,8.9
2023-04-18T02:22:35.000Z,8.8
2023-04-18T02:27:35.000Z,8.77
2023-04-18T02:32:36.000Z,8.73
2023-04-18T02:37:36.000Z,8.85
2023-04-18T02:42:36.000Z,9.07
2023-04-18T02:47:36.000Z,9.13
2023-04-18T02:52:35.000Z,9.09
2023-04-18T02:57:35.000Z,9.18
2023-04-18T03:02:36.000Z,9.36
2023-04-18T03:07:35.000Z,9.47
2023-04-18T03:12:36.000Z,9.47
2023-04-18T03:17:36.000Z,9.33
2023-04-18T03:22:35.000Z,9.24
2023-04-18T03:27:35.000Z,9.16
2023-04-18T03:32:36.000Z,9.2
2023-04-18T03:37:36.000Z,9.52
2023-04-18T03:42:35.000Z,9.77
2023-04-18T03:47:35.000Z,10.02
2023-04-18T03:52:39.000Z,10.16
2023-04-18T03:57:36.000Z,10.04
2023-04-18T04:02:36.000Z,10.03
2023-04-18T04:07:36.000Z,10.2
2023-04-18T04:12:36.000Z,10.39
2023-04-18T04:17:35.000Z,10.67
2023-04-18T04:22:35.000Z,10.99
2023-04-18T04:27:36.000Z,10.99
2023-04-18T04:32:35.000Z,11.24
2023-04-18T04:37:36.000Z,11.35
2023-04-18T04:42:35.000Z,11.56
2023-04-18T04:47:35.000Z,11.49
2023-04-18T04:52:35.000Z,11.52
2023-04-18T04:57:35.000Z,11.5
2023-04-18T05:02:36.000Z,11.56
2023-04-18T05:07:35.000Z,11.52
2023-04-18T05:12:35.000Z,11.61
2023-04-18T05:17:35.000Z,11.79
2023-04-18T05:22:35.000Z,11.91
2023-04-18T05:27:36.000Z,12.28
2023-04-18T05:32:35.000Z,12.5
2023-04-18T05:37:35.000Z,12.5
2023-04-18T05:42:36.000Z,12.79
2023-04-18T05:47:35.000Z,12.71
2023-04-18T05:52:36.000Z,12.61
2023-04-18T05:57:35.000Z,12.51
2023-04-18T06:02:36.000Z,12.31
2023-04-18T06:07:36.000Z,12.3
2023-04-18T06:12:35.000Z,12.32
2023-04-18T06:17:35.000Z,12.5
2023-04-18T06:22:36.000Z,13.02
2023-04-18T06:27:42.000Z,13.58
2023-04-18T06:32:36.000Z,14.36
2023-04-18T06:37:35.000Z,15.39
2023-04-18T06:42:36.000Z,16.85
2023-04-18T06:47:35.000Z,16.85
2023-04-18T06:52:35.000Z,19.36
2023-04-18T06:57:35.000Z,22.64
2023-04-18T07:02:35.000Z,24.28
2023-04-18T07:07:36.000Z,27.01
2023-04-18T07:12:35.000Z,28.87
2023-04-18T07:17:35.000Z,28.85
2023-04-18T07:22:35.000Z,29.74
2023-04-18T07:27:36.000Z,30.86
2023-04-18T07:32:35.000Z,31.29
2023-04-18T07:37:35.000Z,33.35
2023-04-18T07:42:35.000Z,34.12
2023-04-18T07:47:39.000Z,32.77
2023-04-18T07:52:35.000Z,33.58
2023-04-18T07:57:35.000Z,33.58
2023-04-18T08:02:35.000Z,34.24
2023-04-18T08:07:36.000Z,34.32
2023-04-18T08:12:36.000Z,32.73
2023-04-18T08:17:35.000Z,32.02
2023-04-18T08:22:35.000Z,32.43
2023-04-18T08:27:36.000Z,30.9
2023-04-18T08:32:36.000Z,32.36
2023-04-18T08:37:36.000Z,32.43
2023-04-18T08:42:35.000Z,31.39
2023-04-18T08:47:36.000Z,32.32
2023-04-18T08:52:35.000Z,30.84
2023-04-18T08:57:36.000Z,26.2
2023-04-18T09:02:35.000Z,26.68
2023-04-18T09:07:36.000Z,25.15
2023-04-18T09:12:35.000Z,25.15
2023-04-18T09:17:36.000Z,23.91
2023-04-18T09:22:35.000Z,21.87
2023-04-18T09:27:36.000Z,20.84
2023-04-18T09:32:36.000Z,20.74
2023-04-18T09:37:36.000Z,20.16
2023-04-18T09:42:38.000Z,19.67
2023-04-18T09:47:36.000Z,18.99
2023-04-18T09:52:36.000Z,18.94
2023-04-18T09:57:36.000Z,18.98
2023-04-18T10:02:35.000Z,18.77
2023-04-18T10:07:35.000Z,18.46
2023-04-18T10:12:36.000Z,18.42
2023-04-18T10:17:37.000Z,17.8
2023-04-18T10:22:36.000Z,18.08
2023-04-18T10:27:35.000Z,18.08
2023-04-18T10:32:35.000Z,17.8
2023-04-18T10:37:36.000Z,17.86
2023-04-18T10:42:36.000Z,18.11
2023-04-18T10:47:35.000Z,17.81
2023-04-18T10:52:35.000Z,17.42
2023-04-18T10:57:36.000Z,17.16
2023-04-18T11:02:36.000Z,16.73
2023-04-18T11:07:38.000Z,16.57
2023-04-18T11:12:36.000Z,16.94
2023-04-18T11:17:36.000Z,16.98
2023-04-18T11:22:35.000Z,17.05
2023-04-18T11:27:36.000Z,16.92
2023-04-18T11:32:36.000Z,16.92
2023-04-18T11:37:36.000Z,16.6
2023-04-18T11:42:35.000Z,16.34
2023-04-18T11:47:35.000Z,16.3
2023-04-18T11:52:36.000Z,16.37
2023-04-18T11:57:36.000Z,16.64
2023-04-18T12:02:36.000Z,16.69
2023-04-18T12:07:35.000Z,16.55
2023-04-18T12:12:36.000Z,16.71
2023-04-18T12:17:36.000Z,16.57
2023-04-18T12:22:35.000Z,16.37
2023-04-18T12:27:36.000Z,15.9
2023-04-18T12:32:35.000Z,15.94
2023-04-18T12:37:35.000Z,15.9
2023-04-18T12:42:36.000Z,15.88
2023-04-18T12:47:35.000Z,15.88
2023-04-18T12:52:35.000Z,16.06
2023-04-18T12:57:36.000Z,16.2
2023-04-18T13:02:36.000Z,16.33
2023-04-18T13:07:36.000Z,16.25
2023-04-18T13:12:36.000Z,16.18
2023-04-18T13:17:35.000Z,16
2023-04-18T13:22:35.000Z,15.93
2023-04-18T13:27:35.000Z,15.95
2023-04-18T13:32:35.000Z,16.09
2023-04-18T13:37:35.000Z,15.64
2023-04-18T13:42:36.000Z,15.39
2023-04-18T13:47:36.000Z,15.45
2023-04-18T13:52:36.000Z,15.44
2023-04-18T13:57:36.000Z,15.2
2023-04-18T14:02:35.000Z,15.2
2023-04-18T14:07:36.000Z,15.07
2023-04-18T14:12:35.000Z,15.15
2023-04-18T14:17:35.000Z,15.13
2023-04-18T14:22:36.000Z,15.02
2023-04-18T14:27:36.000Z,15.06
2023-04-18T14:32:35.000Z,15.01
2023-04-18T14:37:35.000Z,15.14
2023-04-18T14:42:36.000Z,15.25
2023-04-18T14:47:35.000Z,15.36
2023-04-18T14:52:36.000Z,15.35
2023-04-18T14:57:36.000Z,15.02
2023-04-18T15:02:36.000Z,14.83
2023-04-18T15:07:35.000Z,14.83
2023-04-18T15:12:35.000Z,14.81
2023-04-18T15:17:36.000Z,14.93
2023-04-18T15:22:35.000Z,14.76
2023-04-18T15:27:36.000Z,14.67
2023-04-18T15:32:36.000Z,14.68
2023-04-18T15:37:36.000Z,14.42
2023-04-18T15:42:35.000Z,14.32
2023-04-18T15:47:36.000Z,14.17
2023-04-18T15:52:35.000Z,14.07
2023-04-18T15:57:35.000Z,13.9
2023-04-18T16:02:35.000Z,13.71
2023-04-18T16:07:35.000Z,13.54
2023-04-18T16:12:36.000Z,13.39
2023-04-18T16:17:35.000Z,13.22
2023-04-18T16:22:35.000Z,13.22
2023-04-18T16:27:36.000Z,13.1
2023-04-18T16:32:36.000Z,12.98
2023-04-18T16:37:35.000Z,12.85
2023-04-18T16:42:36.000Z,12.76
2023-04-18T16:47:36.000Z,12.69
2023-04-18T16:52:36.000Z,12.61
2023-04-18T16:57:36.000Z,12.56
2023-04-18T17:02:36.000Z,12.52
2023-04-18T17:07:36.000Z,12.43
2023-04-18T17:12:36.000Z,12.35
2023-04-18T17:17:41.000Z,12.27
2023-04-18T17:22:36.000Z,12.23
2023-04-18T17:27:36.000Z,12.2
2023-04-18T17:32:35.000Z,12.19
2023-04-18T17:37:35.000Z,12.19
2023-04-18T17:42:35.000Z,12.13
2023-04-18T17:47:35.000Z,12.05
2023-04-18T17:52:36.000Z,12.01
2023-04-18T17:57:36.000Z,12
2023-04-18T18:02:35.000Z,11.94
2023-04-18T18:07:35.000Z,11.87
2023-04-18T18:12:35.000Z,11.78
2023-04-18T18:17:35.000Z,11.74
2023-04-18T18:22:36.000Z,11.64
2023-04-18T18:27:36.000Z,11.51
2023-04-18T18:32:35.000Z,11.47
2023-04-18T18:37:36.000Z,11.41
2023-04-18T18:42:35.000Z,11.38
2023-04-18T18:47:36.000Z,11.38
2023-04-18T18:52:35.000Z,11.38
2023-04-18T18:57:36.000Z,11.39
2023-04-18T19:02:35.000Z,11.18
2023-04-18T19:07:35.000Z,11.04
2023-04-18T19:12:36.000Z,10.95
2023-04-18T19:17:41.000Z,10.96
2023-04-18T19:22:36.000Z,10.82
2023-04-18T19:27:36.000Z,10.78
2023-04-18T19:32:35.000Z,10.83
2023-04-18T19:37:35.000Z,10.79
2023-04-18T19:42:35.000Z,10.63
2023-04-18T19:47:35.000Z,10.52
2023-04-18T19:52:35.000Z,10.41
2023-04-18T19:57:36.000Z,10.41
2023-04-18T20:02:35.000Z,10.26
2023-04-18T20:07:36.000Z,10.17
2023-04-18T20:12:35.000Z,10.16
2023-04-18T20:17:36.000Z,10.06
2023-04-18T20:22:35.000Z,9.95
2023-04-18T20:27:35.000Z,10.03
2023-04-18T20:32:36.000Z,10.02
2023-04-18T20:37:35.000Z,9.98
2023-04-18T20:42:36.000Z,9.95
2023-04-18T20:47:35.000Z,9.93
2023-04-18T20:52:36.000Z,10.04
2023-04-18T20:57:35.000Z,10.07
2023-04-18T21:02:36.000Z,10.02
2023-04-18T21:07:36.000Z,9.9
2023-04-18T21:12:35.000Z,9.9
2023-04-18T21:17:36.000Z,9.75
2023-04-18T21:22:35.000Z,9.67
2023-04-18T21:27:35.000Z,9.56
2023-04-18T21:32:36.000Z,9.47
2023-04-18T21:37:36.000Z,9.42
2023-04-18T21:42:35.000Z,9.44
2023-04-18T21:47:36.000Z,9.45
2023-04-18T21:52:36.000Z,9.42
2023-04-18T21:57:35.000Z,9.36
2023-04-18T22:02:36.000Z,9.35
2023-04-18T22:07:35.000Z,9.28
2023-04-18T22:12:35.000Z,9.26
2023-04-18T22:17:35.000Z,9.2
2023-04-18T22:22:35.000Z,9.19
2023-04-18T22:27:35.000Z,9.19
2023-04-18T22:32:36.000Z,9.18
2023-04-18T22:37:35.000Z,9.22
2023-04-18T22:42:36.000Z,9.22
2023-04-18T22:47:35.000Z,9.17
2023-04-18T22:52:35.000Z,9.12
2023-04-18T22:57:36.000Z,9.07
2023-04-18T23:02:36.000Z,9.08
2023-04-18T23:07:35.000Z,9.09
2023-04-18T23:12:36.000Z,9.09
2023-04-18T23:17:36.000Z,9.05
2023-04-18T23:22:36.000Z,8.98
2023-04-18T23:27:35.000Z,8.92
2023-04-18T23:32:36.000Z,8.92
2023-04-18T23:37:35.000Z,8.92
2023-04-18T23:42:36.000Z,8.91
2023-04-18T23:47:36.000Z,8.88
2023-04-18T23:52:35.000Z,8.87
2023-04-18T23:57:35.000Z,8.86
